sensor_id;sensor_type;location;lat;lon;timestamp;temperature;humidity
10447;DHT22;5271;44.422;26.092;2023-02-28T00:01:09;4.80;68.50
10447;DHT22;5271;44.422;26.092;2023-02-28T00:03:36;4.90;68.60
10447;DHT22;5271;44.422;26.092;2023-02-28T00:06:04;4.80;68.60
10447;DHT22;5271;44.422;26.092;2023-02-28T00:08:31;4.80;68.70
10447;DHT22;5271;44.422;26.092;2023-02-28T00:11:02;4.80;68.60
10447;DHT22;5271;44.422;26.092;2023-02-28T00:13:29;4.70;68.60
10447;DHT22;5271;44.422;26.092;2023-02-28T00:16:00;4.70;68.70
10447;DHT22;5271;44.422;26.092;2023-02-28T00:18:27;4.80;68.70
10447;DHT22;5271;44.422;26.092;2023-02-28T00:20:54;4.70;68.60
10447;DHT22;5271;44.422;26.092;2023-02-28T00:23:21;4.70;68.60
10447;DHT22;5271;44.422;26.092;2023-02-28T00:25:48;4.70;68.80
10447;DHT22;5271;44.422;26.092;2023-02-28T00:28:16;4.70;68.70
10447;DHT22;5271;44.422;26.092;2023-02-28T00:30:43;4.70;69.10
10447;DHT22;5271;44.422;26.092;2023-02-28T00:33:10;4.60;69.00
10447;DHT22;5271;44.422;26.092;2023-02-28T00:35:37;4.60;69.20
10447;DHT22;5271;44.422;26.092;2023-02-28T00:38:04;4.70;69.10
10447;DHT22;5271;44.422;26.092;2023-02-28T00:40:31;4.70;69.10
10447;DHT22;5271;44.422;26.092;2023-02-28T00:42:58;4.70;69.00
10447;DHT22;5271;44.422;26.092;2023-02-28T00:45:26;4.70;69.00
10447;DHT22;5271;44.422;26.092;2023-02-28T00:47:53;4.70;69.10
10447;DHT22;5271;44.422;26.092;2023-02-28T00:50:21;4.70;69.20
10447;DHT22;5271;44.422;26.092;2023-02-28T00:52:48;4.70;69.20
10447;DHT22;5271;44.422;26.092;2023-02-28T00:55:15;4.70;69.20
10447;DHT22;5271;44.422;26.092;2023-02-28T00:57:42;4.70;69.10
10447;DHT22;5271;44.422;26.092;2023-02-28T01:00:10;4.70;69.10
10447;DHT22;5271;44.422;26.092;2023-02-28T01:02:38;4.60;69.10
10447;DHT22;5271;44.422;26.092;2023-02-28T01:05:06;4.60;69.40
10447;DHT22;5271;44.422;26.092;2023-02-28T01:07:33;4.60;69.60
10447;DHT22;5271;44.422;26.092;2023-02-28T01:10:00;4.60;69.40
10447;DHT22;5271;44.422;26.092;2023-02-28T01:12:26;4.60;69.40
10447;DHT22;5271;44.422;26.092;2023-02-28T01:14:53;4.70;69.20
10447;DHT22;5271;44.422;26.092;2023-02-28T01:17:20;4.70;69.20
10447;DHT22;5271;44.422;26.092;2023-02-28T01:19:48;4.80;69.00
10447;DHT22;5271;44.422;26.092;2023-02-28T01:22:16;4.70;68.90
10447;DHT22;5271;44.422;26.092;2023-02-28T01:24:43;4.70;69.10
10447;DHT22;5271;44.422;26.092;2023-02-28T01:27:09;4.70;69.00
10447;DHT22;5271;44.422;26.092;2023-02-28T01:29:36;4.70;69.00
10447;DHT22;5271;44.422;26.092;2023-02-28T01:32:03;4.70;69.10
10447;DHT22;5271;44.422;26.092;2023-02-28T01:34:30;4.70;69.00
10447;DHT22;5271;44.422;26.092;2023-02-28T01:36:58;4.70;69.00
10447;DHT22;5271;44.422;26.092;2023-02-28T01:39:25;4.60;69.00
10447;DHT22;5271;44.422;26.092;2023-02-28T01:41:52;4.60;69.10
10447;DHT22;5271;44.422;26.092;2023-02-28T01:47:24;4.60;69.20
10447;DHT22;5271;44.422;26.092;2023-02-28T01:49:52;4.60;69.00
10447;DHT22;5271;44.422;26.092;2023-02-28T01:52:22;4.60;69.00
10447;DHT22;5271;44.422;26.092;2023-02-28T01:54:52;4.60;69.10
10447;DHT22;5271;44.422;26.092;2023-02-28T01:57:23;4.60;69.00
10447;DHT22;5271;44.422;26.092;2023-02-28T01:59:53;4.60;68.90
10447;DHT22;5271;44.422;26.092;2023-02-28T02:02:22;4.50;68.80
10447;DHT22;5271;44.422;26.092;2023-02-28T02:04:51;4.50;69.10
10447;DHT22;5271;44.422;26.092;2023-02-28T02:07:21;4.50;69.10
10447;DHT22;5271;44.422;26.092;2023-02-28T02:09:49;4.50;69.80
10447;DHT22;5271;44.422;26.092;2023-02-28T02:12:31;4.40;69.10
10447;DHT22;5271;44.422;26.092;2023-02-28T02:15:08;4.40;69.00
10447;DHT22;5271;44.422;26.092;2023-02-28T02:17:39;4.30;69.00
10447;DHT22;5271;44.422;26.092;2023-02-28T02:24:01;4.30;69.30
10447;DHT22;5271;44.422;26.092;2023-02-28T02:26:59;4.30;69.50
10447;DHT22;5271;44.422;26.092;2023-02-28T02:33:03;4.20;69.60
10447;DHT22;5271;44.422;26.092;2023-02-28T02:35:39;4.20;69.40
10447;DHT22;5271;44.422;26.092;2023-02-28T02:38:10;4.20;69.30
10447;DHT22;5271;44.422;26.092;2023-02-28T02:40:45;4.20;69.30
10447;DHT22;5271;44.422;26.092;2023-02-28T02:43:18;4.30;69.40
10447;DHT22;5271;44.422;26.092;2023-02-28T02:45:50;4.30;69.30
10447;DHT22;5271;44.422;26.092;2023-02-28T02:48:20;4.40;69.10
10447;DHT22;5271;44.422;26.092;2023-02-28T02:50:52;4.40;69.00
10447;DHT22;5271;44.422;26.092;2023-02-28T02:53:24;4.40;68.70
10447;DHT22;5271;44.422;26.092;2023-02-28T02:55:54;4.40;68.90
10447;DHT22;5271;44.422;26.092;2023-02-28T02:58:24;4.40;68.90
10447;DHT22;5271;44.422;26.092;2023-02-28T03:00:54;4.40;69.10
10447;DHT22;5271;44.422;26.092;2023-02-28T03:03:23;4.40;69.10
10447;DHT22;5271;44.422;26.092;2023-02-28T03:05:58;4.30;69.30
10447;DHT22;5271;44.422;26.092;2023-02-28T03:08:26;4.30;69.30
10447;DHT22;5271;44.422;26.092;2023-02-28T03:10:56;4.20;69.20
10447;DHT22;5271;44.422;26.092;2023-02-28T03:13:42;4.20;69.20
10447;DHT22;5271;44.422;26.092;2023-02-28T03:16:28;4.20;69.20
10447;DHT22;5271;44.422;26.092;2023-02-28T03:19:06;4.20;69.30
10447;DHT22;5271;44.422;26.092;2023-02-28T03:21:44;4.20;69.40
10447;DHT22;5271;44.422;26.092;2023-02-28T03:24:18;4.20;69.60
10447;DHT22;5271;44.422;26.092;2023-02-28T03:26:52;4.10;69.60
10447;DHT22;5271;44.422;26.092;2023-02-28T03:29:25;4.10;69.40
10447;DHT22;5271;44.422;26.092;2023-02-28T03:31:58;4.10;69.40
10447;DHT22;5271;44.422;26.092;2023-02-28T03:34:29;4.20;69.60
10447;DHT22;5271;44.422;26.092;2023-02-28T03:37:03;4.20;69.50
10447;DHT22;5271;44.422;26.092;2023-02-28T03:39:36;4.20;69.50
10447;DHT22;5271;44.422;26.092;2023-02-28T03:42:07;4.30;69.40
10447;DHT22;5271;44.422;26.092;2023-02-28T03:44:39;4.30;69.30
10447;DHT22;5271;44.422;26.092;2023-02-28T03:47:10;4.30;69.10
10447;DHT22;5271;44.422;26.092;2023-02-28T03:49:43;4.30;69.00
10447;DHT22;5271;44.422;26.092;2023-02-28T03:52:14;4.40;69.10
10447;DHT22;5271;44.422;26.092;2023-02-28T03:54:43;4.30;69.00
10447;DHT22;5271;44.422;26.092;2023-02-28T03:57:15;4.30;69.20
10447;DHT22;5271;44.422;26.092;2023-02-28T03:59:49;4.20;69.00
10447;DHT22;5271;44.422;26.092;2023-02-28T04:02:19;4.20;69.40
10447;DHT22;5271;44.422;26.092;2023-02-28T04:04:46;4.20;70.00
10447;DHT22;5271;44.422;26.092;2023-02-28T04:07:15;4.20;69.50
10447;DHT22;5271;44.422;26.092;2023-02-28T04:09:42;4.20;69.30
10447;DHT22;5271;44.422;26.092;2023-02-28T04:12:09;4.30;69.00
10447;DHT22;5271;44.422;26.092;2023-02-28T04:14:36;4.40;68.80
10447;DHT22;5271;44.422;26.092;2023-02-28T04:17:03;4.40;69.10
10447;DHT22;5271;44.422;26.092;2023-02-28T04:19:30;4.40;68.70
10447;DHT22;5271;44.422;26.092;2023-02-28T04:21:57;4.30;68.90
10447;DHT22;5271;44.422;26.092;2023-02-28T04:24:26;4.40;68.80
10447;DHT22;5271;44.422;26.092;2023-02-28T04:26:55;4.30;68.90
10447;DHT22;5271;44.422;26.092;2023-02-28T04:29:24;4.30;68.70
10447;DHT22;5271;44.422;26.092;2023-02-28T04:31:51;4.30;68.90
10447;DHT22;5271;44.422;26.092;2023-02-28T04:34:19;4.30;68.80
10447;DHT22;5271;44.422;26.092;2023-02-28T04:36:46;4.20;68.60
10447;DHT22;5271;44.422;26.092;2023-02-28T04:39:14;4.20;68.80
10447;DHT22;5271;44.422;26.092;2023-02-28T04:41:44;4.10;69.00
10447;DHT22;5271;44.422;26.092;2023-02-28T04:44:11;4.10;69.10
10447;DHT22;5271;44.422;26.092;2023-02-28T04:46:38;4.00;69.10
10447;DHT22;5271;44.422;26.092;2023-02-28T04:49:05;3.90;69.40
10447;DHT22;5271;44.422;26.092;2023-02-28T04:51:31;3.90;69.40
10447;DHT22;5271;44.422;26.092;2023-02-28T04:53:58;3.90;69.60
10447;DHT22;5271;44.422;26.092;2023-02-28T04:56:25;4.00;69.40
10447;DHT22;5271;44.422;26.092;2023-02-28T04:58:53;3.90;69.20
10447;DHT22;5271;44.422;26.092;2023-02-28T05:01:22;3.90;69.50
10447;DHT22;5271;44.422;26.092;2023-02-28T05:03:51;3.80;69.40
10447;DHT22;5271;44.422;26.092;2023-02-28T05:06:19;3.80;69.50
10447;DHT22;5271;44.422;26.092;2023-02-28T05:08:47;3.80;69.70
10447;DHT22;5271;44.422;26.092;2023-02-28T05:11:16;3.80;69.70
10447;DHT22;5271;44.422;26.092;2023-02-28T05:13:44;3.70;69.70
10447;DHT22;5271;44.422;26.092;2023-02-28T05:16:12;3.70;70.00
10447;DHT22;5271;44.422;26.092;2023-02-28T05:18:40;3.70;69.80
10447;DHT22;5271;44.422;26.092;2023-02-28T05:21:27;3.70;70.10
10447;DHT22;5271;44.422;26.092;2023-02-28T05:23:55;3.70;70.10
10447;DHT22;5271;44.422;26.092;2023-02-28T05:26:22;3.70;69.90
10447;DHT22;5271;44.422;26.092;2023-02-28T05:28:49;3.70;70.10
10447;DHT22;5271;44.422;26.092;2023-02-28T05:31:18;3.70;70.10
10447;DHT22;5271;44.422;26.092;2023-02-28T05:33:44;3.70;70.20
10447;DHT22;5271;44.422;26.092;2023-02-28T05:36:11;3.70;70.30
10447;DHT22;5271;44.422;26.092;2023-02-28T05:38:38;3.70;70.40
10447;DHT22;5271;44.422;26.092;2023-02-28T05:41:06;3.70;70.40
10447;DHT22;5271;44.422;26.092;2023-02-28T05:43:34;3.60;70.30
10447;DHT22;5271;44.422;26.092;2023-02-28T05:46:03;3.60;70.60
10447;DHT22;5271;44.422;26.092;2023-02-28T05:48:32;3.60;70.80
10447;DHT22;5271;44.422;26.092;2023-02-28T05:50:59;3.60;70.40
10447;DHT22;5271;44.422;26.092;2023-02-28T05:53:26;3.60;70.70
10447;DHT22;5271;44.422;26.092;2023-02-28T05:55:53;3.60;70.90
10447;DHT22;5271;44.422;26.092;2023-02-28T05:58:20;3.60;70.80
10447;DHT22;5271;44.422;26.092;2023-02-28T06:00:48;3.60;70.90
10447;DHT22;5271;44.422;26.092;2023-02-28T06:03:15;3.60;70.90
10447;DHT22;5271;44.422;26.092;2023-02-28T06:05:43;3.60;71.00
10447;DHT22;5271;44.422;26.092;2023-02-28T06:08:10;3.70;71.10
10447;DHT22;5271;44.422;26.092;2023-02-28T06:10:37;3.70;71.00
10447;DHT22;5271;44.422;26.092;2023-02-28T06:13:06;3.70;70.70
10447;DHT22;5271;44.422;26.092;2023-02-28T06:15:33;3.70;70.80
10447;DHT22;5271;44.422;26.092;2023-02-28T06:18:00;3.60;71.00
10447;DHT22;5271;44.422;26.092;2023-02-28T06:20:27;3.60;70.90
10447;DHT22;5271;44.422;26.092;2023-02-28T06:22:56;3.60;71.20
10447;DHT22;5271;44.422;26.092;2023-02-28T06:25:25;3.60;71.10
10447;DHT22;5271;44.422;26.092;2023-02-28T06:27:53;3.60;70.90
10447;DHT22;5271;44.422;26.092;2023-02-28T06:30:20;3.70;71.00
10447;DHT22;5271;44.422;26.092;2023-02-28T06:32:49;3.70;70.70
10447;DHT22;5271;44.422;26.092;2023-02-28T06:35:17;3.70;70.70
10447;DHT22;5271;44.422;26.092;2023-02-28T06:37:44;3.70;70.80
10447;DHT22;5271;44.422;26.092;2023-02-28T06:40:14;3.80;70.80
10447;DHT22;5271;44.422;26.092;2023-02-28T06:42:42;3.80;70.70
10447;DHT22;5271;44.422;26.092;2023-02-28T06:45:10;3.80;70.50
10447;DHT22;5271;44.422;26.092;2023-02-28T06:47:38;3.80;70.40
10447;DHT22;5271;44.422;26.092;2023-02-28T06:50:07;3.70;70.70
10447;DHT22;5271;44.422;26.092;2023-02-28T06:52:34;3.80;70.80
10447;DHT22;5271;44.422;26.092;2023-02-28T06:55:03;3.80;70.70
10447;DHT22;5271;44.422;26.092;2023-02-28T06:57:32;3.90;70.50
10447;DHT22;5271;44.422;26.092;2023-02-28T07:00:01;3.90;71.10
10447;DHT22;5271;44.422;26.092;2023-02-28T07:02:28;4.00;70.40
10447;DHT22;5271;44.422;26.092;2023-02-28T07:04:55;4.10;70.10
10447;DHT22;5271;44.422;26.092;2023-02-28T07:07:22;4.10;70.00
10447;DHT22;5271;44.422;26.092;2023-02-28T07:09:48;4.10;69.70
10447;DHT22;5271;44.422;26.092;2023-02-28T07:12:16;4.20;69.60
10447;DHT22;5271;44.422;26.092;2023-02-28T07:14:44;4.20;69.40
10447;DHT22;5271;44.422;26.092;2023-02-28T07:17:11;4.10;69.50
10447;DHT22;5271;44.422;26.092;2023-02-28T07:19:39;4.10;69.90
10447;DHT22;5271;44.422;26.092;2023-02-28T07:22:06;4.30;69.70
10447;DHT22;5271;44.422;26.092;2023-02-28T07:24:33;4.60;69.60
10447;DHT22;5271;44.422;26.092;2023-02-28T07:27:00;5.00;69.20
10447;DHT22;5271;44.422;26.092;2023-02-28T07:29:27;5.40;67.50
10447;DHT22;5271;44.422;26.092;2023-02-28T07:31:55;5.70;67.10
10447;DHT22;5271;44.422;26.092;2023-02-28T07:34:23;6.20;67.00
10447;DHT22;5271;44.422;26.092;2023-02-28T07:36:53;6.70;64.90
10447;DHT22;5271;44.422;26.092;2023-02-28T07:39:20;7.10;64.20
10447;DHT22;5271;44.422;26.092;2023-02-28T07:41:47;7.40;63.10
10447;DHT22;5271;44.422;26.092;2023-02-28T07:44:14;7.50;62.00
10447;DHT22;5271;44.422;26.092;2023-02-28T07:46:40;7.20;62.00
10447;DHT22;5271;44.422;26.092;2023-02-28T07:49:09;6.90;62.70
10447;DHT22;5271;44.422;26.092;2023-02-28T07:51:36;6.70;62.90
10447;DHT22;5271;44.422;26.092;2023-02-28T07:54:03;6.40;63.20
10447;DHT22;5271;44.422;26.092;2023-02-28T07:56:30;6.20;64.20
10447;DHT22;5271;44.422;26.092;2023-02-28T07:58:57;6.10;64.00
10447;DHT22;5271;44.422;26.092;2023-02-28T08:01:24;5.90;64.60
10447;DHT22;5271;44.422;26.092;2023-02-28T08:03:50;5.70;64.70
10447;DHT22;5271;44.422;26.092;2023-02-28T08:06:20;5.50;64.80
10447;DHT22;5271;44.422;26.092;2023-02-28T08:08:47;5.40;65.20
10447;DHT22;5271;44.422;26.092;2023-02-28T08:11:15;5.40;65.80
10447;DHT22;5271;44.422;26.092;2023-02-28T08:13:42;5.50;65.70
10447;DHT22;5271;44.422;26.092;2023-02-28T08:16:10;5.60;65.50
10447;DHT22;5271;44.422;26.092;2023-02-28T08:18:37;5.70;64.80
10447;DHT22;5271;44.422;26.092;2023-02-28T08:21:06;5.70;64.60
10447;DHT22;5271;44.422;26.092;2023-02-28T08:23:35;5.70;64.90
10447;DHT22;5271;44.422;26.092;2023-02-28T08:26:02;5.80;65.00
10447;DHT22;5271;44.422;26.092;2023-02-28T08:28:29;5.80;64.30
10447;DHT22;5271;44.422;26.092;2023-02-28T08:30:56;5.80;64.50
10447;DHT22;5271;44.422;26.092;2023-02-28T08:33:23;5.80;64.30
10447;DHT22;5271;44.422;26.092;2023-02-28T08:35:52;5.70;64.70
10447;DHT22;5271;44.422;26.092;2023-02-28T08:38:20;5.80;64.60
10447;DHT22;5271;44.422;26.092;2023-02-28T08:40:48;5.80;64.20
10447;DHT22;5271;44.422;26.092;2023-02-28T08:43:15;5.80;64.20
10447;DHT22;5271;44.422;26.092;2023-02-28T08:45:42;5.80;64.90
10447;DHT22;5271;44.422;26.092;2023-02-28T08:48:09;5.70;64.20
10447;DHT22;5271;44.422;26.092;2023-02-28T08:50:36;5.70;64.30
10447;DHT22;5271;44.422;26.092;2023-02-28T08:53:02;5.90;64.60
10447;DHT22;5271;44.422;26.092;2023-02-28T08:55:29;6.50;64.90
10447;DHT22;5271;44.422;26.092;2023-02-28T08:57:57;7.40;62.70
10447;DHT22;5271;44.422;26.092;2023-02-28T09:00:25;8.40;60.60
10447;DHT22;5271;44.422;26.092;2023-02-28T09:02:51;9.30;59.90
10447;DHT22;5271;44.422;26.092;2023-02-28T09:05:20;10.00;56.20
10447;DHT22;5271;44.422;26.092;2023-02-28T09:07:47;10.10;57.00
10447;DHT22;5271;44.422;26.092;2023-02-28T09:10:13;10.00;56.10
10447;DHT22;5271;44.422;26.092;2023-02-28T09:12:40;9.80;56.20
10447;DHT22;5271;44.422;26.092;2023-02-28T09:15:10;9.50;57.00
10447;DHT22;5271;44.422;26.092;2023-02-28T09:17:37;9.30;57.10
10447;DHT22;5271;44.422;26.092;2023-02-28T09:20:05;9.10;57.30
10447;DHT22;5271;44.422;26.092;2023-02-28T09:22:32;8.80;57.80
10447;DHT22;5271;44.422;26.092;2023-02-28T09:24:59;8.60;57.90
10447;DHT22;5271;44.422;26.092;2023-02-28T09:27:25;8.20;58.50
10447;DHT22;5271;44.422;26.092;2023-02-28T09:29:52;7.80;59.00
10447;DHT22;5271;44.422;26.092;2023-02-28T09:32:20;7.50;59.60
10447;DHT22;5271;44.422;26.092;2023-02-28T09:34:47;7.30;60.10
10447;DHT22;5271;44.422;26.092;2023-02-28T09:37:14;7.10;60.80
10447;DHT22;5271;44.422;26.092;2023-02-28T09:39:41;7.10;61.10
10447;DHT22;5271;44.422;26.092;2023-02-28T09:42:23;7.10;61.00
10447;DHT22;5271;44.422;26.092;2023-02-28T09:44:51;7.00;61.00
10447;DHT22;5271;44.422;26.092;2023-02-28T09:47:27;6.90;61.10
10447;DHT22;5271;44.422;26.092;2023-02-28T09:49:57;6.80;61.20
10447;DHT22;5271;44.422;26.092;2023-02-28T09:52:29;6.70;61.50
10447;DHT22;5271;44.422;26.092;2023-02-28T09:54:58;6.80;61.80
10447;DHT22;5271;44.422;26.092;2023-02-28T09:57:31;6.80;61.80
10447;DHT22;5271;44.422;26.092;2023-02-28T10:00:06;6.80;61.80
10447;DHT22;5271;44.422;26.092;2023-02-28T10:03:06;6.80;62.10
10447;DHT22;5271;44.422;26.092;2023-02-28T10:05:41;6.60;61.90
10447;DHT22;5271;44.422;26.092;2023-02-28T10:08:14;6.50;62.20
10447;DHT22;5271;44.422;26.092;2023-02-28T10:10:43;6.40;63.00
10447;DHT22;5271;44.422;26.092;2023-02-28T10:13:17;6.30;63.30
10447;DHT22;5271;44.422;26.092;2023-02-28T10:15:48;6.30;63.50
10447;DHT22;5271;44.422;26.092;2023-02-28T10:18:23;6.20;63.10
10447;DHT22;5271;44.422;26.092;2023-02-28T10:20:51;6.20;63.30
10447;DHT22;5271;44.422;26.092;2023-02-28T10:23:23;6.20;63.40
10447;DHT22;5271;44.422;26.092;2023-02-28T10:26:00;6.30;63.80
10447;DHT22;5271;44.422;26.092;2023-02-28T10:28:29;6.30;63.60
10447;DHT22;5271;44.422;26.092;2023-02-28T10:30:58;6.40;63.80
10447;DHT22;5271;44.422;26.092;2023-02-28T10:33:30;6.50;63.50
10447;DHT22;5271;44.422;26.092;2023-02-28T10:35:58;6.70;63.30
10447;DHT22;5271;44.422;26.092;2023-02-28T10:38:27;6.80;63.20
10447;DHT22;5271;44.422;26.092;2023-02-28T10:41:04;6.80;62.60
10447;DHT22;5271;44.422;26.092;2023-02-28T10:43:31;6.70;62.70
10447;DHT22;5271;44.422;26.092;2023-02-28T10:46:02;6.60;62.80
10447;DHT22;5271;44.422;26.092;2023-02-28T10:48:33;6.60;62.90
10447;DHT22;5271;44.422;26.092;2023-02-28T10:51:02;6.50;63.00
10447;DHT22;5271;44.422;26.092;2023-02-28T10:53:32;6.60;63.40
10447;DHT22;5271;44.422;26.092;2023-02-28T10:56:02;6.60;63.10
10447;DHT22;5271;44.422;26.092;2023-02-28T10:58:31;6.70;63.10
10447;DHT22;5271;44.422;26.092;2023-02-28T11:00:59;6.80;63.10
10447;DHT22;5271;44.422;26.092;2023-02-28T11:03:33;7.00;62.70
10447;DHT22;5271;44.422;26.092;2023-02-28T11:06:05;7.20;62.00
10447;DHT22;5271;44.422;26.092;2023-02-28T11:08:34;7.40;62.00
10447;DHT22;5271;44.422;26.092;2023-02-28T11:11:04;7.60;62.00
10447;DHT22;5271;44.422;26.092;2023-02-28T11:13:34;7.70;61.50
10447;DHT22;5271;44.422;26.092;2023-02-28T11:16:04;7.90;61.20
10447;DHT22;5271;44.422;26.092;2023-02-28T11:18:40;8.00;61.00
10447;DHT22;5271;44.422;26.092;2023-02-28T11:21:09;8.00;60.70
10447;DHT22;5271;44.422;26.092;2023-02-28T11:23:41;7.90;60.90
10447;DHT22;5271;44.422;26.092;2023-02-28T11:26:09;7.90;61.10
10447;DHT22;5271;44.422;26.092;2023-02-28T11:28:38;7.80;61.30
10447;DHT22;5271;44.422;26.092;2023-02-28T11:31:15;7.60;61.40
10447;DHT22;5271;44.422;26.092;2023-02-28T11:33:47;7.50;61.50
10447;DHT22;5271;44.422;26.092;2023-02-28T11:36:19;7.60;61.80
10447;DHT22;5271;44.422;26.092;2023-02-28T11:38:46;7.60;61.90
10447;DHT22;5271;44.422;26.092;2023-02-28T11:41:27;7.60;62.00
10447;DHT22;5271;44.422;26.092;2023-02-28T11:44:16;7.60;61.90
10447;DHT22;5271;44.422;26.092;2023-02-28T11:46:49;7.60;61.80
10447;DHT22;5271;44.422;26.092;2023-02-28T11:49:31;7.60;61.80
10447;DHT22;5271;44.422;26.092;2023-02-28T11:52:06;7.70;62.10
10447;DHT22;5271;44.422;26.092;2023-02-28T11:54:52;7.80;61.70
10447;DHT22;5271;44.422;26.092;2023-02-28T11:57:50;7.90;61.60
10447;DHT22;5271;44.422;26.092;2023-02-28T12:00:31;7.90;61.50
10447;DHT22;5271;44.422;26.092;2023-02-28T12:03:13;7.80;61.50
10447;DHT22;5271;44.422;26.092;2023-02-28T12:05:45;7.80;61.80
10447;DHT22;5271;44.422;26.092;2023-02-28T12:08:25;7.90;61.80
10447;DHT22;5271;44.422;26.092;2023-02-28T12:11:01;7.90;61.90
10447;DHT22;5271;44.422;26.092;2023-02-28T12:13:38;7.90;61.90
10447;DHT22;5271;44.422;26.092;2023-02-28T12:16:40;7.80;62.20
10447;DHT22;5271;44.422;26.092;2023-02-28T12:19:17;7.80;62.20
10447;DHT22;5271;44.422;26.092;2023-02-28T12:22:03;7.70;62.40
10447;DHT22;5271;44.422;26.092;2023-02-28T12:24:45;7.60;62.70
10447;DHT22;5271;44.422;26.092;2023-02-28T12:27:20;7.60;63.00
10447;DHT22;5271;44.422;26.092;2023-02-28T12:29:52;7.60;63.10
10447;DHT22;5271;44.422;26.092;2023-02-28T12:32:23;7.60;63.00
10447;DHT22;5271;44.422;26.092;2023-02-28T12:34:56;7.50;62.90
10447;DHT22;5271;44.422;26.092;2023-02-28T12:37:32;7.50;63.20
10447;DHT22;5271;44.422;26.092;2023-02-28T12:40:02;7.40;63.30
10447;DHT22;5271;44.422;26.092;2023-02-28T12:42:35;7.40;63.40
10447;DHT22;5271;44.422;26.092;2023-02-28T12:45:10;7.40;63.50
10447;DHT22;5271;44.422;26.092;2023-02-28T12:47:38;7.40;63.50
10447;DHT22;5271;44.422;26.092;2023-02-28T12:50:09;7.40;63.80
10447;DHT22;5271;44.422;26.092;2023-02-28T12:52:46;7.40;63.80
10447;DHT22;5271;44.422;26.092;2023-02-28T12:55:19;7.60;63.80
10447;DHT22;5271;44.422;26.092;2023-02-28T12:57:54;7.70;63.60
10447;DHT22;5271;44.422;26.092;2023-02-28T13:00:31;7.80;63.20
10447;DHT22;5271;44.422;26.092;2023-02-28T13:03:31;7.80;63.20
10447;DHT22;5271;44.422;26.092;2023-02-28T13:06:14;7.80;63.10
10447;DHT22;5271;44.422;26.092;2023-02-28T13:09:01;7.80;63.10
10447;DHT22;5271;44.422;26.092;2023-02-28T13:11:31;7.80;63.20
10447;DHT22;5271;44.422;26.092;2023-02-28T13:14:01;7.70;63.20
10447;DHT22;5271;44.422;26.092;2023-02-28T13:16:56;7.70;63.50
10447;DHT22;5271;44.422;26.092;2023-02-28T13:19:26;7.60;63.70
10447;DHT22;5271;44.422;26.092;2023-02-28T13:21:54;7.60;63.80
10447;DHT22;5271;44.422;26.092;2023-02-28T13:24:43;7.60;63.90
10447;DHT22;5271;44.422;26.092;2023-02-28T13:27:24;7.60;63.90
10447;DHT22;5271;44.422;26.092;2023-02-28T13:29:58;7.70;63.80
10447;DHT22;5271;44.422;26.092;2023-02-28T13:32:32;7.60;64.20
10447;DHT22;5271;44.422;26.092;2023-02-28T13:41:45;7.80;64.00
10447;DHT22;5271;44.422;26.092;2023-02-28T13:44:16;8.00;63.80
10447;DHT22;5271;44.422;26.092;2023-02-28T13:47:21;8.10;63.60
10447;DHT22;5271;44.422;26.092;2023-02-28T13:49:51;8.10;63.30
10447;DHT22;5271;44.422;26.092;2023-02-28T13:52:21;8.10;63.40
10447;DHT22;5271;44.422;26.092;2023-02-28T13:55:03;8.00;63.30
10447;DHT22;5271;44.422;26.092;2023-02-28T13:57:49;8.00;63.50
10447;DHT22;5271;44.422;26.092;2023-02-28T14:00:28;8.00;63.70
10447;DHT22;5271;44.422;26.092;2023-02-28T14:06:09;8.00;63.80
10447;DHT22;5271;44.422;26.092;2023-02-28T14:08:37;8.00;63.90
10447;DHT22;5271;44.422;26.092;2023-02-28T14:11:25;8.00;64.00
10447;DHT22;5271;44.422;26.092;2023-02-28T14:13:54;8.10;63.90
10447;DHT22;5271;44.422;26.092;2023-02-28T14:16:23;8.10;63.50
10447;DHT22;5271;44.422;26.092;2023-02-28T14:18:56;8.10;63.50
10447;DHT22;5271;44.422;26.092;2023-02-28T14:21:26;8.00;63.70
10447;DHT22;5271;44.422;26.092;2023-02-28T14:24:19;8.00;63.90
10447;DHT22;5271;44.422;26.092;2023-02-28T14:27:09;8.00;64.20
10447;DHT22;5271;44.422;26.092;2023-02-28T14:32:35;7.90;64.10
10447;DHT22;5271;44.422;26.092;2023-02-28T14:35:17;7.90;64.40
10447;DHT22;5271;44.422;26.092;2023-02-28T14:37:46;7.90;64.40
10447;DHT22;5271;44.422;26.092;2023-02-28T14:40:16;7.90;64.60
10447;DHT22;5271;44.422;26.092;2023-02-28T14:42:48;7.90;64.60
10447;DHT22;5271;44.422;26.092;2023-02-28T14:45:19;7.90;64.60
10447;DHT22;5271;44.422;26.092;2023-02-28T14:47:49;7.90;65.00
10447;DHT22;5271;44.422;26.092;2023-02-28T14:50:21;7.90;65.10
10447;DHT22;5271;44.422;26.092;2023-02-28T14:52:52;7.90;65.00
10447;DHT22;5271;44.422;26.092;2023-02-28T14:55:24;7.80;65.00
10447;DHT22;5271;44.422;26.092;2023-02-28T14:57:54;7.70;65.00
10447;DHT22;5271;44.422;26.092;2023-02-28T15:00:23;7.60;65.10
10447;DHT22;5271;44.422;26.092;2023-02-28T15:02:52;7.50;65.40
10447;DHT22;5271;44.422;26.092;2023-02-28T15:05:24;7.40;65.60
10447;DHT22;5271;44.422;26.092;2023-02-28T15:08:02;7.40;66.00
10447;DHT22;5271;44.422;26.092;2023-02-28T15:10:30;7.40;65.90
10447;DHT22;5271;44.422;26.092;2023-02-28T15:12:59;7.40;65.70
10447;DHT22;5271;44.422;26.092;2023-02-28T15:15:32;7.40;65.80
10447;DHT22;5271;44.422;26.092;2023-02-28T15:18:04;7.40;65.80
10447;DHT22;5271;44.422;26.092;2023-02-28T15:20:32;7.30;65.70
10447;DHT22;5271;44.422;26.092;2023-02-28T15:23:00;7.30;65.80
10447;DHT22;5271;44.422;26.092;2023-02-28T15:25:27;7.30;65.70
10447;DHT22;5271;44.422;26.092;2023-02-28T15:27:55;7.30;65.70
10447;DHT22;5271;44.422;26.092;2023-02-28T15:30:26;7.30;65.80
10447;DHT22;5271;44.422;26.092;2023-02-28T15:33:20;7.30;65.80
10447;DHT22;5271;44.422;26.092;2023-02-28T15:35:47;7.30;66.10
10447;DHT22;5271;44.422;26.092;2023-02-28T15:38:17;7.20;66.00
10447;DHT22;5271;44.422;26.092;2023-02-28T15:40:46;7.20;66.40
10447;DHT22;5271;44.422;26.092;2023-02-28T15:43:24;7.20;66.10
10447;DHT22;5271;44.422;26.092;2023-02-28T15:45:53;7.20;66.10
10447;DHT22;5271;44.422;26.092;2023-02-28T15:48:25;7.20;66.10
10447;DHT22;5271;44.422;26.092;2023-02-28T15:50:55;7.10;66.20
10447;DHT22;5271;44.422;26.092;2023-02-28T15:53:25;7.10;66.30
10447;DHT22;5271;44.422;26.092;2023-02-28T15:55:55;7.10;66.40
10447;DHT22;5271;44.422;26.092;2023-02-28T15:58:22;7.10;66.70
10447;DHT22;5271;44.422;26.092;2023-02-28T16:01:06;7.10;66.40
10447;DHT22;5271;44.422;26.092;2023-02-28T16:03:40;7.00;66.50
10447;DHT22;5271;44.422;26.092;2023-02-28T16:06:30;6.90;66.70
10447;DHT22;5271;44.422;26.092;2023-02-28T16:08:58;6.90;67.00
10447;DHT22;5271;44.422;26.092;2023-02-28T16:11:25;6.90;66.90
10447;DHT22;5271;44.422;26.092;2023-02-28T16:13:53;7.00;66.80
10447;DHT22;5271;44.422;26.092;2023-02-28T16:16:22;6.90;66.70
10447;DHT22;5271;44.422;26.092;2023-02-28T16:18:51;6.90;66.80
10447;DHT22;5271;44.422;26.092;2023-02-28T16:21:18;6.90;66.90
10447;DHT22;5271;44.422;26.092;2023-02-28T16:23:45;6.90;67.20
10447;DHT22;5271;44.422;26.092;2023-02-28T16:26:19;6.80;67.10
10447;DHT22;5271;44.422;26.092;2023-02-28T16:28:46;6.80;67.10
10447;DHT22;5271;44.422;26.092;2023-02-28T16:31:13;6.80;67.40